sensor_id;sensor_type;location;lat;lon;timestamp;P1;durP1;ratioP1;P2;durP2;ratioP2
40074;SDS011;26529;51.530;11.754;2023-04-03T00:00:56;1.33;;;0.43;;
40074;SDS011;26529;51.530;11.754;2023-04-03T00:03:22;1.98;;;0.60;;
40074;SDS011;26529;51.530;11.754;2023-04-03T00:05:47;0.55;;;0.30;;
40074;SDS011;26529;51.530;11.754;2023-04-03T00:08:13;1.83;;;0.30;;
40074;SDS011;26529;51.530;11.754;2023-04-03T00:10:39;1.73;;;0.43;;
40074;SDS011;26529;51.530;11.754;2023-04-03T00:13:05;0.90;;;0.38;;
40074;SDS011;26529;51.530;11.754;2023-04-03T00:15:32;1.55;;;0.40;;
40074;SDS011;26529;51.530;11.754;2023-04-03T00:17:57;1.27;;;0.30;;
40074;SDS011;26529;51.530;11.754;2023-04-03T00:20:23;1.85;;;0.70;;
40074;SDS011;26529;51.530;11.754;2023-04-03T00:22:48;0.68;;;0.50;;
40074;SDS011;26529;51.530;11.754;2023-04-03T00:25:14;1.52;;;0.60;;
40074;SDS011;26529;51.530;11.754;2023-04-03T00:27:40;1.05;;;0.52;;
40074;SDS011;26529;51.530;11.754;2023-04-03T00:30:06;0.57;;;0.25;;
40074;SDS011;26529;51.530;11.754;2023-04-03T00:32:34;1.27;;;0.50;;
40074;SDS011;26529;51.530;11.754;2023-04-03T00:34:59;0.93;;;0.40;;
40074;SDS011;26529;51.530;11.754;2023-04-03T00:37:25;2.67;;;0.70;;
40074;SDS011;26529;51.530;11.754;2023-04-03T00:39:50;1.10;;;0.55;;
40074;SDS011;26529;51.530;11.754;2023-04-03T00:42:16;2.70;;;0.60;;
40074;SDS011;26529;51.530;11.754;2023-04-03T00:47:11;1.25;;;0.55;;
40074;SDS011;26529;51.530;11.754;2023-04-03T00:49:38;1.25;;;0.40;;
40074;SDS011;26529;51.530;11.754;2023-04-03T00:52:05;2.70;;;0.50;;
40074;SDS011;26529;51.530;11.754;2023-04-03T00:54:34;0.43;;;0.25;;
40074;SDS011;26529;51.530;11.754;2023-04-03T00:57:02;0.47;;;0.30;;
40074;SDS011;26529;51.530;11.754;2023-04-03T00:59:30;1.58;;;0.45;;
40074;SDS011;26529;51.530;11.754;2023-04-03T01:01:58;2.28;;;0.50;;
40074;SDS011;26529;51.530;11.754;2023-04-03T01:04:43;2.90;;;0.50;;
40074;SDS011;26529;51.530;11.754;2023-04-03T01:07:16;1.65;;;0.68;;
40074;SDS011;26529;51.530;11.754;2023-04-03T01:09:54;0.43;;;0.25;;
40074;SDS011;26529;51.530;11.754;2023-04-03T01:14:51;0.45;;;0.25;;
40074;SDS011;26529;51.530;11.754;2023-04-03T01:17:28;1.55;;;0.50;;
40074;SDS011;26529;51.530;11.754;2023-04-03T01:25:40;1.25;;;0.55;;
40074;SDS011;26529;51.530;11.754;2023-04-03T01:28:09;3.38;;;0.40;;
40074;SDS011;26529;51.530;11.754;2023-04-03T01:31:25;1.52;;;0.40;;
40074;SDS011;26529;51.530;11.754;2023-04-03T01:33:42;0.73;;;0.20;;
40074;SDS011;26529;51.530;11.754;2023-04-03T01:36:08;0.80;;;0.28;;
40074;SDS011;26529;51.530;11.754;2023-04-03T01:38:35;0.70;;;0.45;;
40074;SDS011;26529;51.530;11.754;2023-04-03T01:41:00;0.93;;;0.65;;
40074;SDS011;26529;51.530;11.754;2023-04-03T01:43:26;3.42;;;0.70;;
40074;SDS011;26529;51.530;11.754;2023-04-03T01:45:52;1.85;;;0.50;;
40074;SDS011;26529;51.530;11.754;2023-04-03T01:48:19;1.20;;;0.55;;
40074;SDS011;26529;51.530;11.754;2023-04-03T01:50:45;1.77;;;0.63;;
40074;SDS011;26529;51.530;11.754;2023-04-03T01:53:11;0.68;;;0.43;;
40074;SDS011;26529;51.530;11.754;2023-04-03T01:55:36;1.92;;;0.57;;
40074;SDS011;26529;51.530;11.754;2023-04-03T01:58:02;1.35;;;0.40;;
40074;SDS011;26529;51.530;11.754;2023-04-03T02:00:28;0.68;;;0.40;;
40074;SDS011;26529;51.530;11.754;2023-04-03T02:02:53;1.27;;;0.38;;
40074;SDS011;26529;51.530;11.754;2023-04-03T02:05:19;1.52;;;0.45;;
40074;SDS011;26529;51.530;11.754;2023-04-03T02:07:44;2.05;;;0.60;;
40074;SDS011;26529;51.530;11.754;2023-04-03T02:10:10;1.00;;;0.43;;
40074;SDS011;26529;51.530;11.754;2023-04-03T02:12:36;0.93;;;0.30;;
40074;SDS011;26529;51.530;11.754;2023-04-03T02:15:01;1.77;;;0.50;;
40074;SDS011;26529;51.530;11.754;2023-04-03T02:17:27;1.67;;;0.80;;
40074;SDS011;26529;51.530;11.754;2023-04-03T02:19:54;1.08;;;0.30;;
40074;SDS011;26529;51.530;11.754;2023-04-03T02:22:19;1.02;;;0.40;;
40074;SDS011;26529;51.530;11.754;2023-04-03T02:24:45;1.67;;;0.50;;
40074;SDS011;26529;51.530;11.754;2023-04-03T02:27:11;0.82;;;0.50;;
40074;SDS011;26529;51.530;11.754;2023-04-03T02:29:36;2.05;;;0.50;;
40074;SDS011;26529;51.530;11.754;2023-04-03T02:32:02;1.42;;;0.70;;
40074;SDS011;26529;51.530;11.754;2023-04-03T02:34:28;1.17;;;0.63;;
40074;SDS011;26529;51.530;11.754;2023-04-03T02:36:55;1.40;;;0.65;;
40074;SDS011;26529;51.530;11.754;2023-04-03T02:39:21;1.48;;;0.50;;
40074;SDS011;26529;51.530;11.754;2023-04-03T02:41:47;2.72;;;0.80;;
40074;SDS011;26529;51.530;11.754;2023-04-03T02:44:18;2.40;;;0.73;;
40074;SDS011;26529;51.530;11.754;2023-04-03T02:46:44;1.63;;;0.60;;
40074;SDS011;26529;51.530;11.754;2023-04-03T02:49:10;1.35;;;0.82;;
40074;SDS011;26529;51.530;11.754;2023-04-03T02:51:36;1.27;;;0.68;;
40074;SDS011;26529;51.530;11.754;2023-04-03T02:54:01;1.25;;;0.50;;
40074;SDS011;26529;51.530;11.754;2023-04-03T02:56:30;1.38;;;0.40;;
40074;SDS011;26529;51.530;11.754;2023-04-03T02:58:56;2.70;;;0.77;;
40074;SDS011;26529;51.530;11.754;2023-04-03T03:01:22;2.00;;;0.70;;
40074;SDS011;26529;51.530;11.754;2023-04-03T03:03:47;0.88;;;0.50;;
40074;SDS011;26529;51.530;11.754;2023-04-03T03:06:17;2.00;;;0.80;;
40074;SDS011;26529;51.530;11.754;2023-04-03T03:08:43;1.83;;;0.50;;
40074;SDS011;26529;51.530;11.754;2023-04-03T03:11:09;2.63;;;0.80;;
40074;SDS011;26529;51.530;11.754;2023-04-03T03:13:35;1.30;;;0.50;;
40074;SDS011;26529;51.530;11.754;2023-04-03T03:16:00;1.30;;;0.43;;
40074;SDS011;26529;51.530;11.754;2023-04-03T03:18:27;1.88;;;0.57;;
40074;SDS011;26529;51.530;11.754;2023-04-03T03:20:57;1.75;;;0.52;;
40074;SDS011;26529;51.530;11.754;2023-04-03T03:23:24;1.60;;;0.60;;
40074;SDS011;26529;51.530;11.754;2023-04-03T03:25:55;3.10;;;0.80;;
40074;SDS011;26529;51.530;11.754;2023-04-03T03:28:22;1.67;;;0.60;;
40074;SDS011;26529;51.530;11.754;2023-04-03T03:30:48;1.63;;;0.40;;
40074;SDS011;26529;51.530;11.754;2023-04-03T03:33:13;0.50;;;0.40;;
40074;SDS011;26529;51.530;11.754;2023-04-03T03:35:39;1.00;;;0.50;;
40074;SDS011;26529;51.530;11.754;2023-04-03T03:38:05;1.85;;;0.80;;
40074;SDS011;26529;51.530;11.754;2023-04-03T03:40:31;1.13;;;0.50;;
40074;SDS011;26529;51.530;11.754;2023-04-03T03:42:57;1.80;;;0.40;;
40074;SDS011;26529;51.530;11.754;2023-04-03T03:45:22;1.15;;;0.57;;
40074;SDS011;26529;51.530;11.754;2023-04-03T03:47:48;2.92;;;0.60;;
40074;SDS011;26529;51.530;11.754;2023-04-03T03:50:14;2.47;;;1.00;;
40074;SDS011;26529;51.530;11.754;2023-04-03T03:52:39;2.25;;;0.50;;
40074;SDS011;26529;51.530;11.754;2023-04-03T03:55:05;1.38;;;0.50;;
40074;SDS011;26529;51.530;11.754;2023-04-03T03:57:33;2.05;;;0.73;;
40074;SDS011;26529;51.530;11.754;2023-04-03T03:59:59;1.63;;;0.60;;
40074;SDS011;26529;51.530;11.754;2023-04-03T04:02:25;1.38;;;0.43;;
40074;SDS011;26529;51.530;11.754;2023-04-03T04:04:52;1.55;;;0.65;;
40074;SDS011;26529;51.530;11.754;2023-04-03T04:07:17;1.02;;;0.52;;
40074;SDS011;26529;51.530;11.754;2023-04-03T04:09:43;2.35;;;0.77;;
40074;SDS011;26529;51.530;11.754;2023-04-03T04:12:08;1.38;;;0.60;;
40074;SDS011;26529;51.530;11.754;2023-04-03T04:14:34;1.92;;;1.05;;
40074;SDS011;26529;51.530;11.754;2023-04-03T04:17:00;1.42;;;0.63;;
40074;SDS011;26529;51.530;11.754;2023-04-03T04:19:27;1.42;;;0.77;;
40074;SDS011;26529;51.530;11.754;2023-04-03T04:21:53;1.70;;;0.70;;
40074;SDS011;26529;51.530;11.754;2023-04-03T04:24:19;1.58;;;0.80;;
40074;SDS011;26529;51.530;11.754;2023-04-03T04:26:46;1.65;;;0.82;;
40074;SDS011;26529;51.530;11.754;2023-04-03T04:29:14;1.08;;;0.70;;
40074;SDS011;26529;51.530;11.754;2023-04-03T04:31:39;1.42;;;0.70;;
40074;SDS011;26529;51.530;11.754;2023-04-03T04:34:05;1.35;;;0.90;;
40074;SDS011;26529;51.530;11.754;2023-04-03T04:36:32;2.03;;;0.70;;
40074;SDS011;26529;51.530;11.754;2023-04-03T04:38:57;1.70;;;0.80;;
40074;SDS011;26529;51.530;11.754;2023-04-03T04:41:25;1.50;;;0.75;;
40074;SDS011;26529;51.530;11.754;2023-04-03T04:43:52;1.67;;;0.77;;
40074;SDS011;26529;51.530;11.754;2023-04-03T04:46:17;1.77;;;0.85;;
40074;SDS011;26529;51.530;11.754;2023-04-03T04:48:48;1.90;;;0.80;;
40074;SDS011;26529;51.530;11.754;2023-04-03T04:51:16;1.60;;;0.70;;
40074;SDS011;26529;51.530;11.754;2023-04-03T04:53:42;1.20;;;0.65;;
40074;SDS011;26529;51.530;11.754;2023-04-03T04:56:10;1.90;;;0.70;;
40074;SDS011;26529;51.530;11.754;2023-04-03T04:58:38;1.52;;;0.65;;
40074;SDS011;26529;51.530;11.754;2023-04-03T05:01:07;1.95;;;0.90;;
40074;SDS011;26529;51.530;11.754;2023-04-03T05:03:40;1.95;;;0.90;;
40074;SDS011;26529;51.530;11.754;2023-04-03T05:06:06;2.10;;;0.93;;
40074;SDS011;26529;51.530;11.754;2023-04-03T05:08:33;1.55;;;0.70;;
40074;SDS011;26529;51.530;11.754;2023-04-03T05:10:59;1.25;;;0.82;;
40074;SDS011;26529;51.530;11.754;2023-04-03T05:13:26;1.77;;;0.93;;
40074;SDS011;26529;51.530;11.754;2023-04-03T05:15:53;2.10;;;0.82;;
40074;SDS011;26529;51.530;11.754;2023-04-03T05:18:18;1.35;;;0.63;;
40074;SDS011;26529;51.530;11.754;2023-04-03T05:20:44;1.70;;;1.05;;
40074;SDS011;26529;51.530;11.754;2023-04-03T05:23:10;1.55;;;0.75;;
40074;SDS011;26529;51.530;11.754;2023-04-03T05:25:39;1.33;;;0.80;;
40074;SDS011;26529;51.530;11.754;2023-04-03T05:28:06;1.15;;;0.70;;
40074;SDS011;26529;51.530;11.754;2023-04-03T05:30:32;1.70;;;0.85;;
40074;SDS011;26529;51.530;11.754;2023-04-03T05:32:59;1.85;;;0.90;;
40074;SDS011;26529;51.530;11.754;2023-04-03T05:35:36;1.38;;;0.80;;
40074;SDS011;26529;51.530;11.754;2023-04-03T05:38:09;4.43;;;0.70;;
40074;SDS011;26529;51.530;11.754;2023-04-03T05:40:34;1.75;;;0.88;;
40074;SDS011;26529;51.530;11.754;2023-04-03T05:43:00;1.77;;;0.90;;
40074;SDS011;26529;51.530;11.754;2023-04-03T05:45:29;1.48;;;0.73;;
40074;SDS011;26529;51.530;11.754;2023-04-03T05:47:56;1.70;;;0.80;;
40074;SDS011;26529;51.530;11.754;2023-04-03T05:50:22;1.02;;;0.75;;
40074;SDS011;26529;51.530;11.754;2023-04-03T05:52:50;2.33;;;0.85;;
40074;SDS011;26529;51.530;11.754;2023-04-03T05:55:20;1.17;;;0.60;;
40074;SDS011;26529;51.530;11.754;2023-04-03T05:57:46;1.92;;;0.80;;
40074;SDS011;26529;51.530;11.754;2023-04-03T06:00:13;2.78;;;0.95;;
40074;SDS011;26529;51.530;11.754;2023-04-03T06:02:42;1.23;;;0.80;;
40074;SDS011;26529;51.530;11.754;2023-04-03T06:05:13;1.27;;;0.73;;
40074;SDS011;26529;51.530;11.754;2023-04-03T06:07:40;1.48;;;0.80;;
40074;SDS011;26529;51.530;11.754;2023-04-03T06:10:06;0.80;;;0.55;;
40074;SDS011;26529;51.530;11.754;2023-04-03T06:12:32;2.30;;;0.70;;
40074;SDS011;26529;51.530;11.754;2023-04-03T06:14:58;1.15;;;0.60;;
40074;SDS011;26529;51.530;11.754;2023-04-03T06:17:24;1.38;;;1.00;;
40074;SDS011;26529;51.530;11.754;2023-04-03T06:19:49;4.55;;;1.17;;
40074;SDS011;26529;51.530;11.754;2023-04-03T06:22:15;1.45;;;0.70;;
40074;SDS011;26529;51.530;11.754;2023-04-03T06:24:40;1.58;;;0.70;;
40074;SDS011;26529;51.530;11.754;2023-04-03T06:27:06;0.90;;;0.60;;
40074;SDS011;26529;51.530;11.754;2023-04-03T06:29:32;1.65;;;0.88;;
40074;SDS011;26529;51.530;11.754;2023-04-03T06:31:58;1.35;;;0.70;;
40074;SDS011;26529;51.530;11.754;2023-04-03T06:34:23;2.42;;;0.90;;
40074;SDS011;26529;51.530;11.754;2023-04-03T06:36:48;2.03;;;1.13;;
40074;SDS011;26529;51.530;11.754;2023-04-03T06:39:17;2.38;;;1.00;;
40074;SDS011;26529;51.530;11.754;2023-04-03T06:41:48;1.58;;;0.70;;
40074;SDS011;26529;51.530;11.754;2023-04-03T06:44:15;1.98;;;1.10;;
40074;SDS011;26529;51.530;11.754;2023-04-03T06:46:41;3.00;;;0.98;;
40074;SDS011;26529;51.530;11.754;2023-04-03T06:49:07;1.95;;;1.02;;
40074;SDS011;26529;51.530;11.754;2023-04-03T06:51:34;1.83;;;1.10;;
40074;SDS011;26529;51.530;11.754;2023-04-03T06:54:00;3.50;;;1.17;;
40074;SDS011;26529;51.530;11.754;2023-04-03T06:56:26;2.25;;;1.00;;
40074;SDS011;26529;51.530;11.754;2023-04-03T06:58:53;4.80;;;1.25;;
40074;SDS011;26529;51.530;11.754;2023-04-03T07:01:20;2.08;;;0.95;;
40074;SDS011;26529;51.530;11.754;2023-04-03T07:03:46;3.47;;;1.20;;
40074;SDS011;26529;51.530;11.754;2023-04-03T07:06:14;1.13;;;0.82;;
40074;SDS011;26529;51.530;11.754;2023-04-03T07:08:40;1.60;;;0.80;;
40074;SDS011;26529;51.530;11.754;2023-04-03T07:11:06;2.40;;;1.00;;
40074;SDS011;26529;51.530;11.754;2023-04-03T07:13:32;1.90;;;0.90;;
40074;SDS011;26529;51.530;11.754;2023-04-03T07:15:58;1.75;;;0.88;;
40074;SDS011;26529;51.530;11.754;2023-04-03T07:18:23;1.20;;;0.68;;
40074;SDS011;26529;51.530;11.754;2023-04-03T07:20:50;2.58;;;1.00;;
40074;SDS011;26529;51.530;11.754;2023-04-03T07:23:15;1.50;;;0.73;;
40074;SDS011;26529;51.530;11.754;2023-04-03T07:25:45;2.10;;;0.73;;
40074;SDS011;26529;51.530;11.754;2023-04-03T07:28:11;4.72;;;1.02;;
40074;SDS011;26529;51.530;11.754;2023-04-03T07:30:47;2.67;;;1.10;;
40074;SDS011;26529;51.530;11.754;2023-04-03T07:33:15;3.80;;;0.95;;
40074;SDS011;26529;51.530;11.754;2023-04-03T07:35:42;2.83;;;1.00;;
40074;SDS011;26529;51.530;11.754;2023-04-03T07:38:08;3.22;;;1.25;;
40074;SDS011;26529;51.530;11.754;2023-04-03T07:40:35;3.10;;;1.23;;
40074;SDS011;26529;51.530;11.754;2023-04-03T07:43:01;1.83;;;1.10;;
40074;SDS011;26529;51.530;11.754;2023-04-03T07:45:28;2.40;;;0.90;;
40074;SDS011;26529;51.530;11.754;2023-04-03T07:47:53;2.80;;;0.93;;
40074;SDS011;26529;51.530;11.754;2023-04-03T07:50:19;1.77;;;0.82;;
40074;SDS011;26529;51.530;11.754;2023-04-03T07:52:45;2.70;;;0.70;;
40074;SDS011;26529;51.530;11.754;2023-04-03T07:55:11;2.25;;;1.08;;
40074;SDS011;26529;51.530;11.754;2023-04-03T07:57:37;1.85;;;0.90;;
40074;SDS011;26529;51.530;11.754;2023-04-03T08:00:03;2.72;;;0.85;;
40074;SDS011;26529;51.530;11.754;2023-04-03T08:02:37;3.85;;;1.00;;
40074;SDS011;26529;51.530;11.754;2023-04-03T08:05:03;2.75;;;1.10;;
40074;SDS011;26529;51.530;11.754;2023-04-03T08:07:28;3.53;;;1.02;;
40074;SDS011;26529;51.530;11.754;2023-04-03T08:09:54;3.88;;;1.05;;
40074;SDS011;26529;51.530;11.754;2023-04-03T08:12:20;2.03;;;0.93;;
40074;SDS011;26529;51.530;11.754;2023-04-03T08:14:46;2.30;;;0.77;;
40074;SDS011;26529;51.530;11.754;2023-04-03T08:17:11;3.72;;;1.25;;
40074;SDS011;26529;51.530;11.754;2023-04-03T08:19:37;4.13;;;1.20;;
40074;SDS011;26529;51.530;11.754;2023-04-03T08:22:03;2.03;;;1.13;;
40074;SDS011;26529;51.530;11.754;2023-04-03T08:24:30;4.25;;;0.85;;
40074;SDS011;26529;51.530;11.754;2023-04-03T08:26:56;2.67;;;1.00;;
40074;SDS011;26529;51.530;11.754;2023-04-03T08:29:22;4.88;;;1.25;;
40074;SDS011;26529;51.530;11.754;2023-04-03T08:31:47;1.75;;;0.95;;
40074;SDS011;26529;51.530;11.754;2023-04-03T08:34:14;4.18;;;1.00;;
40074;SDS011;26529;51.530;11.754;2023-04-03T08:36:40;3.55;;;1.15;;
40074;SDS011;26529;51.530;11.754;2023-04-03T08:39:06;1.42;;;0.85;;
40074;SDS011;26529;51.530;11.754;2023-04-03T08:41:33;4.32;;;1.23;;
40074;SDS011;26529;51.530;11.754;2023-04-03T08:46:36;5.82;;;1.27;;
40074;SDS011;26529;51.530;11.754;2023-04-03T08:49:14;2.58;;;1.10;;
40074;SDS011;26529;51.530;11.754;2023-04-03T08:51:48;2.47;;;1.27;;
40074;SDS011;26529;51.530;11.754;2023-04-03T08:54:21;3.65;;;1.20;;
40074;SDS011;26529;51.530;11.754;2023-04-03T08:56:53;3.35;;;0.90;;
40074;SDS011;26529;51.530;11.754;2023-04-03T08:59:24;1.75;;;0.93;;
40074;SDS011;26529;51.530;11.754;2023-04-03T09:01:53;2.05;;;0.75;;
40074;SDS011;26529;51.530;11.754;2023-04-03T09:04:20;1.65;;;1.00;;
40074;SDS011;26529;51.530;11.754;2023-04-03T09:06:49;1.55;;;0.70;;
40074;SDS011;26529;51.530;11.754;2023-04-03T09:09:27;2.13;;;1.05;;
40074;SDS011;26529;51.530;11.754;2023-04-03T09:14:46;4.25;;;1.20;;
40074;SDS011;26529;51.530;11.754;2023-04-03T09:17:53;1.92;;;0.90;;
40074;SDS011;26529;51.530;11.754;2023-04-03T09:23:42;2.33;;;1.27;;
40074;SDS011;26529;51.530;11.754;2023-04-03T09:26:14;1.95;;;0.88;;
40074;SDS011;26529;51.530;11.754;2023-04-03T09:28:44;1.85;;;1.02;;
40074;SDS011;26529;51.530;11.754;2023-04-03T09:31:18;3.80;;;0.80;;
40074;SDS011;26529;51.530;11.754;2023-04-03T09:34:22;4.40;;;0.90;;
40074;SDS011;26529;51.530;11.754;2023-04-03T09:36:51;1.92;;;0.80;;
40074;SDS011;26529;51.530;11.754;2023-04-03T09:39:23;3.80;;;0.90;;
40074;SDS011;26529;51.530;11.754;2023-04-03T09:41:58;2.80;;;1.00;;
40074;SDS011;26529;51.530;11.754;2023-04-03T09:44:26;3.75;;;1.05;;
40074;SDS011;26529;51.530;11.754;2023-04-03T09:50:10;3.33;;;1.08;;
40074;SDS011;26529;51.530;11.754;2023-04-03T09:52:45;1.80;;;0.85;;
40074;SDS011;26529;51.530;11.754;2023-04-03T09:55:19;3.58;;;1.10;;
40074;SDS011;26529;51.530;11.754;2023-04-03T09:57:58;1.77;;;0.60;;
40074;SDS011;26529;51.530;11.754;2023-04-03T10:00:38;2.72;;;1.00;;
40074;SDS011;26529;51.530;11.754;2023-04-03T10:03:06;3.60;;;1.00;;
40074;SDS011;26529;51.530;11.754;2023-04-03T10:05:50;2.80;;;0.77;;
40074;SDS011;26529;51.530;11.754;2023-04-03T10:08:24;2.65;;;0.80;;
40074;SDS011;26529;51.530;11.754;2023-04-03T10:13:49;1.58;;;0.73;;
40074;SDS011;26529;51.530;11.754;2023-04-03T10:16:17;3.40;;;0.80;;
40074;SDS011;26529;51.530;11.754;2023-04-03T10:19:31;2.95;;;0.70;;
40074;SDS011;26529;51.530;11.754;2023-04-03T10:21:57;1.30;;;0.70;;
40074;SDS011;26529;51.530;11.754;2023-04-03T10:24:28;1.60;;;0.73;;
40074;SDS011;26529;51.530;11.754;2023-04-03T10:27:10;2.33;;;1.00;;
40074;SDS011;26529;51.530;11.754;2023-04-03T10:38:18;1.13;;;0.68;;
40074;SDS011;26529;51.530;11.754;2023-04-03T10:41:01;3.13;;;1.02;;
40074;SDS011;26529;51.530;11.754;2023-04-03T10:49:33;1.63;;;0.70;;
40074;SDS011;26529;51.530;11.754;2023-04-03T10:54:54;2.03;;;0.90;;
40074;SDS011;26529;51.530;11.754;2023-04-03T10:57:27;1.98;;;0.70;;
40074;SDS011;26529;51.530;11.754;2023-04-03T10:59:56;3.33;;;0.65;;
40074;SDS011;26529;51.530;11.754;2023-04-03T11:05:07;2.97;;;1.05;;
40074;SDS011;26529;51.530;11.754;2023-04-03T11:07:59;2.20;;;0.80;;
40074;SDS011;26529;51.530;11.754;2023-04-03T11:10:39;2.28;;;0.75;;
40074;SDS011;26529;51.530;11.754;2023-04-03T11:13:10;4.47;;;0.82;;
40074;SDS011;26529;51.530;11.754;2023-04-03T11:15:39;1.60;;;0.85;;
40074;SDS011;26529;51.530;11.754;2023-04-03T11:18:08;2.33;;;1.10;;
40074;SDS011;26529;51.530;11.754;2023-04-03T11:20:38;5.13;;;1.05;;
40074;SDS011;26529;51.530;11.754;2023-04-03T11:23:23;1.42;;;0.68;;
40074;SDS011;26529;51.530;11.754;2023-04-03T11:25:55;2.20;;;0.80;;
40074;SDS011;26529;51.530;11.754;2023-04-03T11:28:33;0.88;;;0.50;;
40074;SDS011;26529;51.530;11.754;2023-04-03T11:38:48;1.90;;;0.70;;
40074;SDS011;26529;51.530;11.754;2023-04-03T11:41:24;1.63;;;0.80;;
40074;SDS011;26529;51.530;11.754;2023-04-03T11:43:55;1.33;;;0.60;;
40074;SDS011;26529;51.530;11.754;2023-04-03T11:46:22;1.65;;;0.60;;
40074;SDS011;26529;51.530;11.754;2023-04-03T11:48:48;1.13;;;0.55;;
40074;SDS011;26529;51.530;11.754;2023-04-03T11:53:41;1.42;;;0.60;;
40074;SDS011;26529;51.530;11.754;2023-04-03T12:01:46;2.33;;;0.70;;
40074;SDS011;26529;51.530;11.754;2023-04-03T12:04:15;1.92;;;0.82;;
40074;SDS011;26529;51.530;11.754;2023-04-03T12:06:49;2.33;;;0.55;;
40074;SDS011;26529;51.530;11.754;2023-04-03T12:11:48;2.40;;;0.73;;
40074;SDS011;26529;51.530;11.754;2023-04-03T12:14:15;2.25;;;0.70;;
40074;SDS011;26529;51.530;11.754;2023-04-03T12:16:42;3.50;;;0.85;;
40074;SDS011;26529;51.530;11.754;2023-04-03T12:40:15;1.35;;;0.52;;
40074;SDS011;26529;51.530;11.754;2023-04-03T12:45:38;1.63;;;0.50;;
40074;SDS011;26529;51.530;11.754;2023-04-03T12:48:11;0.98;;;0.63;;
40074;SDS011;26529;51.530;11.754;2023-04-03T12:50:39;3.38;;;0.77;;
40074;SDS011;26529;51.530;11.754;2023-04-03T12:53:10;1.25;;;0.60;;
40074;SDS011;26529;51.530;11.754;2023-04-03T12:55:36;1.02;;;0.40;;
40074;SDS011;26529;51.530;11.754;2023-04-03T12:58:15;1.15;;;0.52;;
40074;SDS011;26529;51.530;11.754;2023-04-03T13:00:57;1.33;;;0.55;;
40074;SDS011;26529;51.530;11.754;2023-04-03T13:03:25;1.50;;;0.70;;
40074;SDS011;26529;51.530;11.754;2023-04-03T13:05:55;0.60;;;0.50;;
40074;SDS011;26529;51.530;11.754;2023-04-03T13:08:24;2.33;;;0.50;;
40074;SDS011;26529;51.530;11.754;2023-04-03T13:11:01;1.30;;;0.45;;
40074;SDS011;26529;51.530;11.754;2023-04-03T13:13:30;1.05;;;0.50;;
40074;SDS011;26529;51.530;11.754;2023-04-03T13:15:56;0.93;;;0.40;;
40074;SDS011;26529;51.530;11.754;2023-04-03T13:18:32;1.00;;;0.60;;
40074;SDS011;26529;51.530;11.754;2023-04-03T13:21:13;1.25;;;0.50;;
40074;SDS011;26529;51.530;11.754;2023-04-03T13:23:43;0.70;;;0.50;;
40074;SDS011;26529;51.530;11.754;2023-04-03T13:26:12;2.00;;;0.60;;
40074;SDS011;26529;51.530;11.754;2023-04-03T13:28:42;2.25;;;0.68;;
40074;SDS011;26529;51.530;11.754;2023-04-03T13:31:17;1.08;;;0.60;;
40074;SDS011;26529;51.530;11.754;2023-04-03T13:33:57;0.80;;;0.60;;
40074;SDS011;26529;51.530;11.754;2023-04-03T13:36:30;1.60;;;0.60;;
40074;SDS011;26529;51.530;11.754;2023-04-03T13:38:59;1.60;;;0.50;;
40074;SDS011;26529;51.530;11.754;2023-04-03T13:41:34;0.93;;;0.50;;
40074;SDS011;26529;51.530;11.754;2023-04-03T13:46:52;2.80;;;0.82;;
40074;SDS011;26529;51.530;11.754;2023-04-03T13:49:39;1.67;;;0.75;;
40074;SDS011;26529;51.530;11.754;2023-04-03T13:52:27;2.65;;;0.70;;
40074;SDS011;26529;51.530;11.754;2023-04-03T13:54:55;1.42;;;0.55;;
40074;SDS011;26529;51.530;11.754;2023-04-03T13:57:26;1.88;;;0.85;;
40074;SDS011;26529;51.530;11.754;2023-04-03T13:59:52;1.48;;;0.43;;
40074;SDS011;26529;51.530;11.754;2023-04-03T14:04:56;0.90;;;0.40;;
40074;SDS011;26529;51.530;11.754;2023-04-03T14:07:25;2.45;;;0.60;;
40074;SDS011;26529;51.530;11.754;2023-04-03T14:09:52;1.23;;;0.45;;
40074;SDS011;26529;51.530;11.754;2023-04-03T14:12:25;1.98;;;0.50;;
40074;SDS011;26529;51.530;11.754;2023-04-03T14:14:53;4.43;;;0.50;;
40074;SDS011;26529;51.530;11.754;2023-04-03T14:17:20;1.02;;;0.50;;
40074;SDS011;26529;51.530;11.754;2023-04-03T14:19:47;0.98;;;0.43;;
40074;SDS011;26529;51.530;11.754;2023-04-03T14:22:16;4.22;;;0.50;;
40074;SDS011;26529;51.530;11.754;2023-04-03T14:24:44;2.13;;;0.75;;
40074;SDS011;26529;51.530;11.754;2023-04-03T14:27:22;2.35;;;0.63;;
40074;SDS011;26529;51.530;11.754;2023-04-03T14:29:52;1.40;;;0.50;;
40074;SDS011;26529;51.530;11.754;2023-04-03T14:32:20;1.75;;;0.55;;
40074;SDS011;26529;51.530;11.754;2023-04-03T14:34:47;1.55;;;0.60;;
40074;SDS011;26529;51.530;11.754;2023-04-03T14:37:15;1.98;;;0.82;;
40074;SDS011;26529;51.530;11.754;2023-04-03T14:39:46;1.52;;;0.88;;
40074;SDS011;26529;51.530;11.754;2023-04-03T14:42:17;1.48;;;0.45;;
40074;SDS011;26529;51.530;11.754;2023-04-03T14:44:47;2.15;;;0.65;;
40074;SDS011;26529;51.530;11.754;2023-04-03T14:47:13;1.55;;;0.73;;
40074;SDS011;26529;51.530;11.754;2023-04-03T14:49:41;1.75;;;0.60;;
40074;SDS011;26529;51.530;11.754;2023-04-03T14:52:09;0.93;;;0.50;;
40074;SDS011;26529;51.530;11.754;2023-04-03T14:54:49;2.63;;;0.65;;
40074;SDS011;26529;51.530;11.754;2023-04-03T14:57:16;2.70;;;0.80;;
40074;SDS011;26529;51.530;11.754;2023-04-03T14:59:43;2.80;;;0.60;;
40074;SDS011;26529;51.530;11.754;2023-04-03T15:02:13;4.95;;;0.70;;
40074;SDS011;26529;51.530;11.754;2023-04-03T15:04:50;6.10;;;0.60;;
40074;SDS011;26529;51.530;11.754;2023-04-03T15:07:15;4.72;;;0.68;;
40074;SDS011;26529;51.530;11.754;2023-04-03T15:09:41;2.95;;;1.02;;
40074;SDS011;26529;51.530;11.754;2023-04-03T15:12:07;4.32;;;0.90;;
40074;SDS011;26529;51.530;11.754;2023-04-03T15:14:33;5.10;;;1.20;;
40074;SDS011;26529;51.530;11.754;2023-04-03T15:16:59;5.00;;;1.10;;
40074;SDS011;26529;51.530;11.754;2023-04-03T15:19:24;5.82;;;1.25;;
40074;SDS011;26529;51.530;11.754;2023-04-03T15:21:50;3.55;;;1.10;;
40074;SDS011;26529;51.530;11.754;2023-04-03T15:24:16;11.13;;;1.25;;
40074;SDS011;26529;51.530;11.754;2023-04-03T15:26:41;4.22;;;1.20;;
40074;SDS011;26529;51.530;11.754;2023-04-03T15:29:07;9.65;;;1.40;;
40074;SDS011;26529;51.530;11.754;2023-04-03T15:31:32;4.38;;;0.82;;
40074;SDS011;26529;51.530;11.754;2023-04-03T15:33:58;4.50;;;1.58;;
40074;SDS011;26529;51.530;11.754;2023-04-03T15:36:24;6.88;;;1.80;;
40074;SDS011;26529;51.530;11.754;2023-04-03T15:38:50;4.25;;;1.20;;
40074;SDS011;26529;51.530;11.754;2023-04-03T15:41:15;4.85;;;1.13;;
40074;SDS011;26529;51.530;11.754;2023-04-03T15:43:41;5.32;;;1.42;;
40074;SDS011;26529;51.530;11.754;2023-04-03T15:46:06;9.20;;;1.73;;
40074;SDS011;26529;51.530;11.754;2023-04-03T15:48:32;4.70;;;1.17;;
40074;SDS011;26529;51.530;11.754;2023-04-03T15:50:57;5.82;;;1.42;;
40074;SDS011;26529;51.530;11.754;2023-04-03T15:53:23;6.18;;;1.25;;
40074;SDS011;26529;51.530;11.754;2023-04-03T15:55:48;6.35;;;1.70;;
40074;SDS011;26529;51.530;11.754;2023-04-03T15:58:14;6.97;;;1.30;;
40074;SDS011;26529;51.530;11.754;2023-04-03T16:00:39;4.90;;;1.30;;
40074;SDS011;26529;51.530;11.754;2023-04-03T16:03:07;6.82;;;1.08;;
40074;SDS011;26529;51.530;11.754;2023-04-03T16:05:35;7.13;;;1.25;;
40074;SDS011;26529;51.530;11.754;2023-04-03T16:08:03;9.68;;;1.27;;
40074;SDS011;26529;51.530;11.754;2023-04-03T16:10:30;6.72;;;1.48;;
40074;SDS011;26529;51.530;11.754;2023-04-03T16:12:55;7.78;;;1.50;;
40074;SDS011;26529;51.530;11.754;2023-04-03T16:15:21;7.45;;;1.27;;